Time;durP1;ratioP1;P1;durP2;ratioP2;P2;SDS_P1;SDS_P2;PMS_P1;PMS_P2;Temp;Humidity;BMP_temperature;BMP_pressure;BME280_temperature;BME280_humidity;BME280_pressure;Samples;Min_cycle;Max_cycle;Signal;HPM_P1;HPM_P2
2022/06/08 00:01:00;;;;;;;16.57;15.07;;;;;;;;;;4950092;29;20434;-91
2022/06/08 00:03:28;;;;;;;17.50;15.83;;;;;;;;;;4937216;29;20439;-92
2022/06/08 00:05:54;;;;;;;18.10;16.30;;;;;;;;;;4945165;29;20451;-91
2022/06/08 00:08:21;;;;;;;17.47;15.87;;;;;;;;;;4906805;29;20452;-91
2022/06/08 00:10:47;;;;;;;16.37;15.00;;;;;;;;;;4909803;29;20516;-92
2022/06/08 00:13:13;;;;;;;19.47;17.43;;;;;;;;;;4906126;29;20479;-91
2022/06/08 00:15:40;;;;;;;17.37;15.77;;;;;;;;;;4900736;29;20836;-92
2022/06/08 00:18:07;;;;;;;16.57;15.07;;;;;;;;;;4923935;29;20447;-93
2022/06/08 00:20:36;;;;;;;16.90;15.40;;;;;;;;;;4906249;29;20443;-91
2022/06/08 00:23:03;;;;;;;16.07;14.60;;;;;;;;;;4914668;29;20447;-85
2022/06/08 00:25:29;;;;;;;15.63;14.13;;;;;;;;;;4922452;29;20435;-92
2022/06/08 00:27:56;;;;;;;18.10;16.20;;;;;;;;;;4907261;29;20475;-91
2022/06/08 00:30:22;;;;;;;16.70;15.00;;;;;;;;;;4909220;29;20439;-91
2022/06/08 00:32:48;;;;;;;16.17;13.90;;;;;;;;;;4922417;29;21066;-92
2022/06/08 00:35:14;;;;;;;15.90;14.50;;;;;;;;;;4908039;29;20452;-92
2022/06/08 00:37:40;;;;;;;15.60;14.10;;;;;;;;;;4908718;29;20452;-91
2022/06/08 00:40:10;;;;;;;17.10;15.43;;;;;;;;;;4906392;29;20511;-92
2022/06/08 00:42:36;;;;;;;16.10;14.60;;;;;;;;;;4920539;29;20446;-92
2022/06/08 00:45:05;;;;;;;17.30;15.57;;;;;;;;;;4903840;29;20511;-91
2022/06/08 00:47:33;;;;;;;17.40;15.83;;;;;;;;;;4905294;29;20482;-90
2022/06/08 00:50:06;;;;;;;18.93;17.00;;;;;;;;;;4888940;29;20442;-91
2022/06/08 00:52:36;;;;;;;17.30;15.60;;;;;;;;;;4891457;29;20476;-92
2022/06/08 00:55:05;;;;;;;16.83;15.20;;;;;;;;;;4919794;29;20421;-92
2022/06/08 00:57:36;;;;;;;22.67;17.93;;;;;;;;;;4901511;29;20539;-92
2022/06/08 01:00:25;;;;;;;18.33;16.43;;;;;;;;;;4920100;29;20478;-93
2022/06/08 01:02:51;;;;;;;18.73;16.83;;;;;;;;;;4910460;29;20444;-93
2022/06/08 01:05:18;;;;;;;17.07;15.37;;;;;;;;;;4903630;29;20442;-92
2022/06/08 01:07:44;;;;;;;18.07;16.30;;;;;;;;;;4916664;29;20490;-93
2022/06/08 01:10:13;;;;;;;18.30;16.40;;;;;;;;;;4919156;29;20432;-93
2022/06/08 01:12:39;;;;;;;18.33;16.70;;;;;;;;;;4917498;29;21095;-92
2022/06/08 01:15:05;;;;;;;22.33;17.03;;;;;;;;;;4918661;29;20472;-92
2022/06/08 01:17:31;;;;;;;18.50;16.70;;;;;;;;;;4916716;29;20607;-92
2022/06/08 01:19:57;;;;;;;19.17;17.20;;;;;;;;;;4917150;29;20487;-92
2022/06/08 01:22:23;;;;;;;20.83;18.63;;;;;;;;;;4915756;29;20456;-92
2022/06/08 01:24:51;;;;;;;19.43;17.27;;;;;;;;;;4915803;29;20518;-91
2022/06/08 01:27:17;;;;;;;21.60;19.30;;;;;;;;;;4928782;29;20440;-91
2022/06/08 01:29:49;;;;;;;20.60;18.50;;;;;;;;;;4918130;29;20418;-92
2022/06/08 01:32:28;;;;;;;19.73;17.83;;;;;;;;;;4916548;29;20475;-93
2022/06/08 01:35:16;;;;;;;21.43;19.10;;;;;;;;;;4907955;29;20446;-92
2022/06/08 01:37:42;;;;;;;19.67;17.67;;;;;;;;;;4915818;29;20470;-89
2022/06/08 01:40:17;;;;;;;19.67;17.57;;;;;;;;;;4918204;29;20432;-92
2022/06/08 01:42:43;;;;;;;20.77;18.73;;;;;;;;;;4918345;29;20463;-92
2022/06/08 01:45:29;;;;;;;23.63;19.70;;;;;;;;;;4899739;29;20953;-93
2022/06/08 01:48:16;;;;;;;21.57;19.37;;;;;;;;;;4918504;29;20543;-93
2022/06/08 01:51:01;;;;;;;19.60;17.50;;;;;;;;;;4930861;29;20436;-93
2022/06/08 01:53:46;;;;;;;20.27;18.27;;;;;;;;;;4922361;29;20471;-92
2022/06/08 01:56:12;;;;;;;17.70;16.03;;;;;;;;;;4932542;29;20483;-92
2022/06/08 01:58:48;;;;;;;18.53;16.83;;;;;;;;;;4925497;29;20507;-93
2022/06/08 02:01:29;;;;;;;18.17;16.30;;;;;;;;;;4903453;29;20421;-91
2022/06/08 02:04:06;;;;;;;19.90;17.90;;;;;;;;;;4923047;29;20588;-92
2022/06/08 02:06:36;;;;;;;17.17;15.67;;;;;;;;;;4917811;29;20495;-92
2022/06/08 02:09:06;;;;;;;17.17;15.40;;;;;;;;;;4927093;29;20408;-93
2022/06/08 02:11:37;;;;;;;17.43;14.33;;;;;;;;;;4925855;29;20460;-91
2022/06/08 02:14:36;;;;;;;16.20;14.57;;;;;;;;;;4926996;29;20443;-93
2022/06/08 03:32:47;;;;;;;8.33;7.53;;;;;;;;;;5364671;23;20534;-89
2022/06/08 03:35:13;;;;;;;9.03;8.33;;;;;;;;;;4892804;29;20449;-88
2022/06/08 03:37:39;;;;;;;11.23;9.60;;;;;;;;;;4888324;29;20481;-88
2022/06/08 03:40:06;;;;;;;11.50;10.40;;;;;;;;;;4882938;29;20444;-87
2022/06/08 03:42:32;;;;;;;10.10;9.30;;;;;;;;;;4868254;29;20628;-87
2022/06/08 03:45:00;;;;;;;14.97;13.37;;;;;;;;;;4901927;29;20471;-87
2022/06/08 03:47:28;;;;;;;11.93;10.97;;;;;;;;;;4889669;29;20440;-87
2022/06/08 03:49:55;;;;;;;12.80;11.47;;;;;;;;;;4904829;29;20793;-87
2022/06/08 03:52:23;;;;;;;12.67;11.37;;;;;;;;;;4901411;29;20480;-88
2022/06/08 03:54:51;;;;;;;11.17;10.03;;;;;;;;;;4887663;29;20456;-88
2022/06/08 03:57:20;;;;;;;10.07;9.17;;;;;;;;;;4897663;29;21261;-88
2022/06/08 03:59:47;;;;;;;9.60;8.80;;;;;;;;;;4868660;29;20703;-88
2022/06/08 04:02:13;;;;;;;9.20;8.50;;;;;;;;;;4889125;29;20964;-88
2022/06/08 04:04:40;;;;;;;10.30;9.30;;;;;;;;;;4891175;29;20449;-89
2022/06/08 04:07:06;;;;;;;8.37;7.57;;;;;;;;;;4898555;29;20527;-88
2022/06/08 04:09:32;;;;;;;7.10;6.60;;;;;;;;;;4903849;29;20440;-88
2022/06/08 04:11:58;;;;;;;7.80;7.40;;;;;;;;;;4560952;29;10000392;-89
2022/06/08 04:14:24;;;;;;;6.50;5.77;;;;;;;;;;4873168;29;20949;-87
2022/06/08 04:16:53;;;;;;;5.13;4.80;;;;;;;;;;4880167;29;20449;-89
2022/06/08 04:19:19;;;;;;;4.97;4.77;;;;;;;;;;4872623;29;20453;-87
2022/06/08 04:21:46;;;;;;;4.10;3.90;;;;;;;;;;4884229;29;21157;-87
2022/06/08 04:24:14;;;;;;;4.50;4.30;;;;;;;;;;4893153;29;20452;-88
2022/06/08 04:26:40;;;;;;;4.50;4.23;;;;;;;;;;4895690;29;20428;-88
2022/06/08 04:29:07;;;;;;;4.37;4.07;;;;;;;;;;4875951;29;20460;-84
2022/06/08 04:31:34;;;;;;;5.13;4.27;;;;;;;;;;4872508;29;20862;-88
2022/06/08 04:34:01;;;;;;;4.10;3.90;;;;;;;;;;4905143;29;20459;-88
2022/06/08 04:36:27;;;;;;;4.93;4.60;;;;;;;;;;4917023;29;20432;-88
2022/06/08 04:38:53;;;;;;;4.50;4.07;;;;;;;;;;4891694;29;20448;-88
2022/06/08 04:41:19;;;;;;;3.80;3.60;;;;;;;;;;4894657;29;20489;-88
2022/06/08 04:43:45;;;;;;;3.83;3.73;;;;;;;;;;4894005;29;20952;-88
2022/06/08 04:46:17;;;;;;;3.70;3.57;;;;;;;;;;4891881;29;20438;-88
2022/06/08 04:48:44;;;;;;;6.23;3.53;;;;;;;;;;4898944;29;20447;-87
2022/06/08 04:51:11;;;;;;;4.00;3.70;;;;;;;;;;4888996;29;20433;-88
2022/06/08 04:53:38;;;;;;;3.50;3.33;;;;;;;;;;4889758;29;20472;-88
2022/06/08 04:56:04;;;;;;;5.80;4.37;;;;;;;;;;4892475;29;20480;-86
2022/06/08 04:58:30;;;;;;;3.60;3.30;;;;;;;;;;4885066;29;20451;-89
2022/06/08 05:00:56;;;;;;;4.27;4.07;;;;;;;;;;4888378;29;20475;-87
2022/06/08 05:03:22;;;;;;;4.10;3.90;;;;;;;;;;4905441;29;20868;-90
2022/06/08 05:05:48;;;;;;;2.93;2.93;;;;;;;;;;4890238;29;20847;-89
2022/06/08 05:08:17;;;;;;;4.10;3.97;;;;;;;;;;4893580;29;20921;-87
2022/06/08 05:10:44;;;;;;;5.00;4.63;;;;;;;;;;4884487;29;20216;-90
2022/06/08 05:13:10;;;;;;;3.97;3.57;;;;;;;;;;4908700;29;20559;-90
2022/06/08 05:15:37;;;;;;;5.23;4.20;;;;;;;;;;4887483;29;20452;-88
2022/06/08 05:18:05;;;;;;;3.87;3.67;;;;;;;;;;4900053;29;20534;-91
2022/06/08 05:20:31;;;;;;;3.03;2.73;;;;;;;;;;4898352;29;20492;-87
2022/06/08 05:22:57;;;;;;;2.90;2.80;;;;;;;;;;4901206;29;20440;-90
2022/06/08 05:25:31;;;;;;;4.80;4.50;;;;;;;;;;4900461;29;20452;-89
2022/06/08 05:27:58;;;;;;;2.70;2.60;;;;;;;;;;4884173;29;20413;-89
2022/06/08 05:30:25;;;;;;;2.90;2.80;;;;;;;;;;4902154;29;20475;-88
2022/06/08 05:32:51;;;;;;;2.60;2.50;;;;;;;;;;4902003;29;20480;-89
2022/06/08 05:35:20;;;;;;;2.43;2.30;;;;;;;;;;4916590;29;20527;-89
2022/06/08 05:37:46;;;;;;;2.90;2.90;;;;;;;;;;4890749;29;20444;-89
2022/06/08 05:40:12;;;;;;;3.33;3.03;;;;;;;;;;4901329;29;20968;-87
2022/06/08 05:42:41;;;;;;;2.20;2.20;;;;;;;;;;4916977;29;20500;-87
2022/06/08 05:45:16;;;;;;;2.30;2.30;;;;;;;;;;4918959;29;20428;-87
2022/06/08 05:47:43;;;;;;;2.70;2.50;;;;;;;;;;4910803;29;20488;-88
2022/06/08 05:50:09;;;;;;;2.40;2.20;;;;;;;;;;4898130;29;20444;-87
2022/06/08 05:52:43;;;;;;;2.50;2.50;;;;;;;;;;4900424;29;20463;-87
2022/06/08 05:55:12;;;;;;;2.03;1.93;;;;;;;;;;4908266;29;20447;-87
2022/06/08 05:57:41;;;;;;;3.13;2.73;;;;;;;;;;4900665;29;20527;-88
2022/06/08 06:00:16;;;;;;;3.77;3.50;;;;;;;;;;4900462;29;20463;-88
2022/06/08 06:02:52;;;;;;;2.10;2.00;;;;;;;;;;4898587;29;20432;-88
2022/06/08 06:05:20;;;;;;;2.00;2.00;;;;;;;;;;4897300;29;20510;-86
2022/06/08 06:07:49;;;;;;;2.40;2.40;;;;;;;;;;4903211;29;20436;-88
2022/06/08 06:10:22;;;;;;;1.70;1.70;;;;;;;;;;4899109;29;20799;-87
2022/06/08 06:12:48;;;;;;;4.53;1.80;;;;;;;;;;4899098;29;20482;-88
2022/06/08 06:15:17;;;;;;;1.90;1.80;;;;;;;;;;4893922;29;20474;-88
2022/06/08 06:17:43;;;;;;;3.33;1.90;;;;;;;;;;4916306;29;20975;-90
2022/06/08 06:20:10;;;;;;;1.53;1.50;;;;;;;;;;4900951;29;20843;-84
2022/06/08 06:22:37;;;;;;;1.80;1.80;;;;;;;;;;4896882;29;20432;-89
2022/06/08 06:25:04;;;;;;;1.97;1.97;;;;;;;;;;4551112;29;10000364;-87
2022/06/08 06:27:30;;;;;;;2.10;1.90;;;;;;;;;;4906454;29;20459;-88
2022/06/08 06:29:57;;;;;;;2.10;1.93;;;;;;;;;;4908340;29;20456;-89
2022/06/08 06:32:31;;;;;;;2.07;1.97;;;;;;;;;;4897667;29;21004;-87
2022/06/08 06:34:58;;;;;;;1.80;1.80;;;;;;;;;;4888193;29;20432;-88
2022/06/08 06:37:24;;;;;;;2.27;2.17;;;;;;;;;;4889523;29;20455;-86
2022/06/08 06:39:53;;;;;;;2.27;2.00;;;;;;;;;;4908720;29;20440;-90
2022/06/08 06:42:20;;;;;;;3.20;3.00;;;;;;;;;;4886217;29;20460;-90
2022/06/08 06:44:47;;;;;;;2.03;2.03;;;;;;;;;;4889874;29;20905;-90
2022/06/08 06:47:13;;;;;;;1.50;1.50;;;;;;;;;;4894984;29;20508;-90
2022/06/08 06:49:39;;;;;;;1.70;1.70;;;;;;;;;;4900458;29;20468;-91
2022/06/08 06:52:05;;;;;;;1.33;1.33;;;;;;;;;;4893927;29;20994;-86
2022/06/08 06:54:32;;;;;;;1.30;1.30;;;;;;;;;;4908498;29;20554;-90
2022/06/08 06:56:58;;;;;;;1.60;1.60;;;;;;;;;;4912142;29;20440;-90
2022/06/08 06:59:28;;;;;;;1.50;1.50;;;;;;;;;;4893337;29;20415;-88
2022/06/08 07:01:56;;;;;;;1.90;1.90;;;;;;;;;;4911184;29;20429;-90
2022/06/08 07:04:22;;;;;;;1.50;1.40;;;;;;;;;;4894595;29;20499;-88
2022/06/08 07:06:48;;;;;;;1.37;1.37;;;;;;;;;;4919855;29;20500;-90
2022/06/08 07:09:14;;;;;;;1.23;1.23;;;;;;;;;;4899130;29;20420;-89
2022/06/08 07:11:40;;;;;;;1.30;1.20;;;;;;;;;;4889779;29;20839;-88
2022/06/08 07:14:07;;;;;;;1.10;1.10;;;;;;;;;;4894101;29;20787;-89
2022/06/08 07:16:34;;;;;;;1.30;1.30;;;;;;;;;;4892339;29;20466;-89
2022/06/08 07:19:00;;;;;;;1.30;0.80;;;;;;;;;;4897880;29;20431;-89
2022/06/08 07:21:26;;;;;;;1.27;1.13;;;;;;;;;;4896848;29;20467;-88
2022/06/08 07:23:52;;;;;;;2.83;1.07;;;;;;;;;;4917074;29;20439;-89
2022/06/08 07:26:18;;;;;;;1.17;1.17;;;;;;;;;;4891547;29;20827;-88
2022/06/08 07:28:44;;;;;;;1.47;1.37;;;;;;;;;;4904428;29;20527;-88
2022/06/08 07:31:12;;;;;;;1.47;1.37;;;;;;;;;;4891179;29;21085;-89
2022/06/08 07:33:38;;;;;;;1.17;1.17;;;;;;;;;;4918534;29;20547;-89
2022/06/08 07:36:04;;;;;;;1.50;1.50;;;;;;;;;;4902258;29;20435;-90
2022/06/08 07:38:31;;;;;;;1.00;1.00;;;;;;;;;;4897898;29;20444;-90
2022/06/08 07:40:56;;;;;;;1.03;1.03;;;;;;;;;;4920100;29;20482;-89
2022/06/08 07:43:25;;;;;;;1.10;1.10;;;;;;;;;;4896039;29;20580;-91
2022/06/08 07:45:52;;;;;;;1.37;1.37;;;;;;;;;;4898085;29;20978;-90
2022/06/08 07:51:06;;;;;;;1.03;1.03;;;;;;;;;;4906999;29;20475;-90
2022/06/08 07:53:34;;;;;;;1.50;1.40;;;;;;;;;;4917466;29;20483;-89
2022/06/08 07:56:00;;;;;;;1.27;1.17;;;;;;;;;;4888952;29;20495;-90
2022/06/08 07:58:26;;;;;;;2.23;1.10;;;;;;;;;;4908968;29;20517;-89
2022/06/08 08:00:53;;;;;;;1.10;1.10;;;;;;;;;;4904967;29;20517;-90
2022/06/08 08:03:26;;;;;;;3.23;1.30;;;;;;;;;;4902722;29;20875;-89
2022/06/08 08:05:54;;;;;;;1.43;1.10;;;;;;;;;;4913645;29;20457;-90
2022/06/08 08:08:23;;;;;;;1.20;1.20;;;;;;;;;;4908483;29;20448;-88
2022/06/08 08:10:49;;;;;;;1.40;1.40;;;;;;;;;;4896418;29;20475;-88
2022/06/08 08:13:21;;;;;;;1.27;1.27;;;;;;;;;;4911159;29;20532;-89
2022/06/08 08:15:52;;;;;;;1.00;1.00;;;;;;;;;;4895934;29;20437;-89
2022/06/08 08:18:18;;;;;;;1.60;1.43;;;;;;;;;;4917021;29;20462;-91
2022/06/08 08:21:02;;;;;;;1.13;1.13;;;;;;;;;;4913146;29;20442;-95
2022/06/08 08:26:22;;;;;;;1.60;1.60;;;;;;;;;;5532882;23;20617;-93
2022/06/08 08:28:57;;;;;;;1.50;1.40;;;;;;;;;;5158752;23;20512;-94
2022/06/08 08:31:24;;;;;;;1.43;1.43;;;;;;;;;;5050012;23;20502;-92
2022/06/08 08:33:50;;;;;;;1.57;1.47;;;;;;;;;;4918277;29;20464;-90
2022/06/08 08:36:19;;;;;;;2.20;1.50;;;;;;;;;;5214111;23;20484;-92
2022/06/08 08:38:46;;;;;;;1.33;1.33;;;;;;;;;;4932665;29;20535;-92
2022/06/08 08:44:00;;;;;;;5.07;4.87;;;;;;;;;;4937619;29;20455;-94
2022/06/08 08:46:51;;;;;;;1.43;1.43;;;;;;;;;;4931217;29;20470;-92
2022/06/08 08:49:19;;;;;;;1.47;1.47;;;;;;;;;;4939217;29;20426;-86
2022/06/08 08:52:01;;;;;;;1.73;1.63;;;;;;;;;;4933626;28;20522;-94
2022/06/08 08:54:38;;;;;;;1.27;1.20;;;;;;;;;;4925678;29;20445;-90
2022/06/08 08:57:30;;;;;;;6.03;2.47;;;;;;;;;;4934233;29;20454;-90
2022/06/08 09:00:02;;;;;;;1.90;1.80;;;;;;;;;;4913794;29;20465;-93
2022/06/08 09:05:32;;;;;;;2.10;1.70;;;;;;;;;;4937717;29;20486;-91
2022/06/08 09:11:10;;;;;;;1.60;1.50;;;;;;;;;;4939711;29;20442;-90
2022/06/08 09:14:13;;;;;;;1.30;1.30;;;;;;;;;;4944951;29;20482;-91
2022/06/08 09:16:47;;;;;;;1.93;1.83;;;;;;;;;;4922542;29;20517;-95
2022/06/08 09:19:26;;;;;;;1.40;1.40;;;;;;;;;;4963379;29;20450;-90
2022/06/08 09:30:38;;;;;;;1.80;1.70;;;30.90;85.20;;;;;;5092954;23;20501;-92
2022/06/08 09:33:25;;;;;;;1.60;1.60;;;30.80;86.50;;;;;;4929444;29;20502;-89
2022/06/08 09:35:52;;;;;;;0.90;0.90;;;;;;;;;;4935070;29;20427;-86
2022/06/08 09:38:34;;;;;;;1.47;1.47;;;31.80;84.80;;;;;;4925343;29;20483;-92
2022/06/08 09:41:02;;;;;;;1.00;1.00;;;;;;;;;;4907764;29;20423;-91
2022/06/08 09:43:28;;;;;;;1.07;1.07;;;32.60;87.60;;;;;;4918593;29;20461;-91
2022/06/08 09:45:55;;;;;;;3.33;1.17;;;33.10;74.30;;;;;;4927658;29;20971;-92
2022/06/08 09:51:52;;;;;;;1.90;1.80;;;31.80;68.90;;;;;;4933822;29;20511;-92
2022/06/08 09:54:43;;;;;;;1.30;1.30;;;30.80;78.10;;;;;;4942144;29;20445;-91
2022/06/08 09:57:30;;;;;;;2.43;2.33;;;30.70;73.60;;;;;;4917052;29;20506;-91
2022/06/08 10:00:09;;;;;;;1.80;1.80;;;;;;;;;;4920081;29;20455;-91
2022/06/08 10:02:55;;;;;;;1.63;1.53;;;28.90;91.30;;;;;;4936782;29;20884;-89
2022/06/08 10:05:40;;;;;;;1.70;1.60;;;27.30;81.50;;;;;;4584361;29;10000146;-92
2022/06/08 10:08:53;;;;;;;1.67;1.63;;;26.50;82.00;;;;;;4928313;29;20908;-91
2022/06/08 10:11:34;;;;;;;2.20;2.10;;;26.30;81.50;;;;;;4880815;29;20418;-91
2022/06/08 10:14:06;;;;;;;1.77;1.77;;;26.30;80.80;;;;;;4899506;29;20444;-90
2022/06/08 10:16:38;;;;;;;3.57;1.97;;;27.40;81.80;;;;;;4936780;29;20433;-85
2022/06/08 10:19:09;;;;;;;2.10;2.00;;;27.70;82.40;;;;;;4936836;29;20437;-91
2022/06/08 10:21:57;;;;;;;;;;;;;;;;;;;;;
2022/06/08 10:25:04;;;;;;;2.70;2.50;;;26.90;78.10;;;;;;4991098;23;21932;-91
2022/06/08 10:28:00;;;;;;;1.60;1.60;;;27.40;82.00;;;;;;4928662;29;20447;-91
2022/06/08 10:31:14;;;;;;;4.10;2.00;;;28.40;73.80;;;;;;4924885;29;20430;-90
2022/06/08 10:33:56;;;;;;;1.57;1.50;;;28.60;77.90;;;;;;4870873;29;20504;-90
2022/06/08 10:36:23;;;;;;;1.63;1.63;;;;;;;;;;4879202;29;20436;-86
2022/06/08 10:38:52;;;;;;;2.40;2.20;;;28.90;77.60;;;;;;4919335;29;20807;-90
2022/06/08 10:47:52;;;;;;;2.33;1.90;;;28.10;78.90;;;;;;4939762;29;20442;-89
2022/06/08 10:58:11;;;;;;;1.67;1.67;;;26.80;80.80;;;;;;4961761;28;20489;-92
2022/06/08 11:01:05;;;;;;;3.53;1.83;;;26.80;81.00;;;;;;4948181;28;21018;-90
2022/06/08 11:03:52;;;;;;;2.77;2.00;;;25.90;86.30;;;;;;4604722;28;10000535;-93
2022/06/08 11:06:51;;;;;;;1.93;1.80;;;25.30;88.60;;;;;;4934054;29;20202;-95
2022/06/08 11:09:45;;;;;;;4.17;1.83;;;23.90;89.40;;;;;;4944363;29;20440;-92
2022/06/08 11:12:14;;;;;;;1.80;1.30;;;;;;;;;;4932922;29;20535;-92
2022/06/08 11:14:52;;;;;;;3.23;2.97;;;;;;;;;;4968046;28;20514;-89
2022/06/08 11:17:35;;;;;;;2.77;2.10;;;21.10;99.90;;;;;;4953131;29;20442;-91
2022/06/08 11:20:20;;;;;;;3.17;2.50;;;19.20;99.90;;;;;;4949679;29;20441;-94
2022/06/08 11:26:07;;;;;;;2.97;2.77;;;18.40;99.90;;;;;;4728279;26;20484;-92
2022/06/08 11:28:43;;;;;;;3.00;2.80;;;18.00;99.90;;;;;;4961412;28;20672;-91
2022/06/08 11:31:32;;;;;;;4.87;4.00;;;17.90;99.90;;;;;;4963654;28;20426;-91
2022/06/08 11:34:13;;;;;;;7.27;3.87;;;17.90;99.90;;;;;;4955138;28;20445;-91
2022/06/08 11:37:13;;;;;;;6.10;5.50;;;18.00;99.90;;;;;;4967991;28;20436;-90
2022/06/08 11:39:39;;;;;;;7.53;3.73;;;;;;;;;;4958514;28;20453;-88
2022/06/08 11:42:28;;;;;;;4.70;4.17;;;18.10;99.90;;;;;;4966154;28;20426;-89
2022/06/08 11:44:59;;;;;;;5.33;3.63;;;18.20;99.90;;;;;;4968946;28;20433;-88
2022/06/08 11:47:51;;;;;;;4.80;4.40;;;18.30;99.90;;;;;;4947940;29;20419;-87
2022/06/08 11:50:26;;;;;;;4.53;4.17;;;18.30;99.90;;;;;;4960412;28;20445;-89
2022/06/08 11:52:59;;;;;;;5.03;3.63;;;;;;;;;;4933440;29;20482;-92
2022/06/08 11:55:26;;;;;;;4.23;3.83;;;18.50;99.90;;;;;;4950380;29;20469;-90
2022/06/08 11:57:52;;;;;;;5.70;4.83;;;;;;;;;;4932809;29;20420;-88
2022/06/08 12:00:29;;;;;;;3.93;3.60;;;18.30;99.90;;;;;;4625747;28;10000389;-87
2022/06/08 12:03:17;;;;;;;8.43;4.90;;;18.20;99.90;;;;;;4934202;29;20435;-91
2022/06/08 12:05:52;;;;;;;6.80;5.43;;;18.20;99.90;;;;;;4936418;29;20506;-89
2022/06/08 12:08:18;;;;;;;4.43;4.10;;;;;;;;;;4930015;29;20457;-90
2022/06/08 12:10:45;;;;;;;3.30;3.10;;;;;;;;;;4947084;29;20482;-87
2022/06/08 12:13:21;;;;;;;6.63;3.80;;;18.30;99.90;;;;;;4949728;29;20470;-89
2022/06/08 12:15:54;;;;;;;8.93;4.40;;;18.40;99.90;;;;;;4939966;28;20450;-89
2022/06/08 12:18:46;;;;;;;4.87;4.47;;;18.40;99.90;;;;;;4944387;28;20849;-89
2022/06/08 12:21:13;;;;;;;9.40;4.27;;;;;;;;;;4933207;29;20459;-88
2022/06/08 12:23:45;;;;;;;4.10;3.80;;;;;;;;;;4939809;29;20465;-88
2022/06/08 12:26:27;;;;;;;4.20;3.77;;;18.30;99.90;;;;;;4935316;29;20454;-89
2022/06/08 12:29:20;;;;;;;16.97;4.70;;;18.40;99.90;;;;;;4929904;29;20435;-89
2022/06/08 12:31:47;;;;;;;4.10;3.80;;;;;;;;;;4914599;29;20431;-88
2022/06/08 12:34:47;;;;;;;6.33;5.73;;;18.30;99.90;;;;;;4937467;29;20528;-90
2022/06/08 12:37:33;;;;;;;4.13;3.30;;;;;;;;;;4901767;29;20419;-89
2022/06/08 12:40:15;;;;;;;4.37;4.00;;;18.30;99.90;;;;;;4923991;29;20453;-89
2022/06/08 12:42:56;;;;;;;5.60;4.87;;;18.20;99.90;;;;;;4945312;29;20422;-89
2022/06/08 12:45:26;;;;;;;5.23;4.47;;;18.20;99.90;;;;;;4944946;29;20446;-88
2022/06/08 12:47:52;;;;;;;5.90;4.30;;;18.20;99.90;;;;;;4947583;29;20715;-88
2022/06/08 12:50:24;;;;;;;4.90;4.57;;;18.30;99.90;;;;;;4944385;29;20445;-86
2022/06/08 12:52:50;;;;;;;5.70;4.00;;;18.30;99.90;;;;;;4951522;29;20465;-86
2022/06/08 12:55:23;;;;;;;10.17;5.17;;;18.40;99.90;;;;;;4951565;29;20817;-86
2022/06/08 12:57:49;;;;;;;4.37;3.90;;;18.40;99.90;;;;;;4585411;29;10000077;-91
2022/06/08 13:00:18;;;;;;;4.50;4.17;;;18.10;99.90;;;;;;4936183;29;20581;-90
2022/06/08 13:02:45;;;;;;;4.77;4.20;;;;;;;;;;4929391;29;20442;-87
2022/06/08 13:05:30;;;;;;;4.83;4.43;;;18.30;99.90;;;;;;4918623;29;20451;-90
2022/06/08 13:07:58;;;;;;;7.40;5.00;;;18.40;99.90;;;;;;4928106;29;20454;-89
2022/06/08 13:10:26;;;;;;;5.80;5.40;;;18.30;99.90;;;;;;4935034;29;20506;-90
2022/06/08 13:12:55;;;;;;;8.87;5.10;;;18.30;99.90;;;;;;4927970;29;20521;-88
2022/06/08 13:15:27;;;;;;;4.87;4.43;;;18.70;99.90;;;;;;4919800;29;20428;-91
2022/06/08 13:17:53;;;;;;;6.07;5.10;;;;;;;;;;4921066;29;20990;-91
2022/06/08 13:20:23;;;;;;;5.73;5.23;;;18.70;99.90;;;;;;4920346;29;20534;-91
2022/06/08 13:22:49;;;;;;;4.60;4.20;;;;;;;;;;4931550;29;20452;-91
2022/06/08 13:25:20;;;;;;;7.90;4.83;;;18.70;99.90;;;;;;4925475;29;20462;-86
2022/06/08 13:27:50;;;;;;;7.53;4.87;;;;;;;;;;4911604;29;20885;-88
2022/06/08 13:30:28;;;;;;;5.10;4.70;;;18.70;99.90;;;;;;4921768;29;20521;-89
2022/06/08 13:32:55;;;;;;;5.47;5.07;;;18.70;99.90;;;;;;4911823;29;20474;-87
2022/06/08 13:35:21;;;;;;;4.93;4.63;;;18.70;99.90;;;;;;4946880;29;20430;-87
2022/06/08 13:37:49;;;;;;;4.90;4.50;;;19.10;99.90;;;;;;4935582;29;20831;-87
2022/06/08 13:40:26;;;;;;;9.20;8.50;;;19.20;99.90;;;;;;4931622;29;20510;-86
2022/06/08 13:42:52;;;;;;;9.73;5.00;;;19.30;99.90;;;;;;4910035;29;20443;-86
2022/06/08 13:45:25;;;;;;;5.47;5.07;;;19.10;99.90;;;;;;4912724;29;20452;-87
2022/06/08 13:47:59;;;;;;;9.20;5.00;;;18.50;99.90;;;;;;4936691;29;20431;-87
2022/06/08 13:50:36;;;;;;;5.53;5.13;;;19.20;99.90;;;;;;4911271;29;20641;-84
2022/06/08 13:53:03;;;;;;;5.60;5.10;;;19.40;99.90;;;;;;4918129;29;20755;-86
2022/06/08 13:55:33;;;;;;;4.80;4.10;;;19.10;99.90;;;;;;4913160;29;20470;-86
2022/06/08 13:58:03;;;;;;;4.37;4.00;;;19.10;99.90;;;;;;4940983;29;20486;-87
2022/06/08 14:00:33;;;;;;;4.80;4.40;;;18.90;99.90;;;;;;4914260;29;20466;-88
2022/06/08 14:03:27;;;;;;;5.00;4.63;;;19.00;99.90;;;;;;4937749;29;20446;-86
2022/06/08 14:14:13;;;;;;;3.93;3.53;;;18.20;99.90;;;;;;4934405;29;20485;-87
2022/06/08 14:16:42;;;;;;;4.33;4.03;;;18.30;99.90;;;;;;4936341;29;20506;-89
2022/06/08 14:19:15;;;;;;;4.57;4.27;;;17.80;99.90;;;;;;4912360;29;20483;-87
2022/06/08 14:21:40;;;;;;;5.27;4.77;;;;;;;;;;4910494;29;20459;-88
2022/06/08 14:24:06;;;;;;;3.97;3.20;;;17.60;99.90;;;;;;4916320;29;20465;-90
2022/06/08 14:26:33;;;;;;;3.27;3.07;;;;;;;;;;4932370;29;20501;-87
2022/06/08 14:28:59;;;;;;;4.10;3.80;;;17.40;99.90;;;;;;4945458;29;20250;-88
2022/06/08 14:31:57;;;;;;;4.03;3.93;;;17.50;99.90;;;;;;4958262;29;20439;-90
2022/06/08 14:34:33;;;;;;;4.63;3.40;;;;;;;;;;4959755;29;20534;-89
2022/06/08 14:37:03;;;;;;;3.63;3.37;;;17.60;99.90;;;;;;4929234;29;20448;-91
2022/06/08 14:39:35;;;;;;;3.67;3.33;;;17.50;99.90;;;;;;4949074;29;20450;-88
2022/06/08 14:42:12;;;;;;;3.13;2.93;;;17.50;99.90;;;;;;4941932;29;20498;-90
2022/06/08 14:44:42;;;;;;;2.90;2.70;;;;;;;;;;4957033;29;20446;-91
2022/06/08 14:47:21;;;;;;;4.33;2.87;;;17.50;99.90;;;;;;4942612;29;20667;-89
2022/06/08 14:49:54;;;;;;;2.93;2.40;;;;;;;;;;4945299;29;20423;-89
2022/06/08 14:52:34;;;;;;;3.00;2.77;;;17.40;99.90;;;;;;4955266;29;20478;-87
2022/06/08 14:55:06;;;;;;;2.43;2.33;;;;;;;;;;4933328;29;20412;-89
2022/06/08 14:57:36;;;;;;;2.80;2.70;;;17.40;99.90;;;;;;4943985;29;20433;-87
2022/06/08 15:00:13;;;;;;;3.37;3.17;;;;;;;;;;4968982;28;20442;-90
2022/06/08 15:02:39;;;;;;;3.40;3.20;;;;;;;;;;4914321;29;20450;-91
2022/06/08 15:05:26;;;;;;;3.33;2.83;;;17.30;99.90;;;;;;4967020;29;20501;-89
2022/06/08 15:07:55;;;;;;;7.33;3.83;;;;;;;;;;4957434;29;20434;-91
2022/06/08 15:10:24;;;;;;;3.17;3.07;;;;;;;;;;4952598;29;20851;-90
2022/06/08 15:13:01;;;;;;;2.77;2.50;;;17.10;99.90;;;;;;4952081;29;20466;-91
2022/06/08 15:15:28;;;;;;;3.43;3.00;;;;;;;;;;4913189;29;20480;-89
2022/06/08 15:18:03;;;;;;;3.33;2.93;;;;;;;;;;4931294;29;20432;-91
2022/06/08 15:20:32;;;;;;;3.10;2.90;;;17.20;99.90;;;;;;4966734;28;20450;-90
2022/06/08 15:23:00;;;;;;;3.17;2.87;;;17.20;99.90;;;;;;4943638;29;21138;-90
2022/06/08 15:25:40;;;;;;;6.90;3.10;;;17.30;99.90;;;;;;4936888;29;20458;-90
2022/06/08 15:28:11;;;;;;;3.13;2.60;;;17.20;99.90;;;;;;4914579;29;20493;-90
2022/06/08 15:30:38;;;;;;;3.20;2.90;;;;;;;;;;4942278;29;20420;-90
2022/06/08 15:33:04;;;;;;;2.77;2.57;;;;;;;;;;4950400;29;20509;-94
2022/06/08 15:35:31;;;;;;;2.83;2.73;;;;;;;;;;4947142;29;20690;-90
2022/06/08 15:38:04;;;;;;;2.30;2.30;;;17.00;99.90;;;;;;4943024;29;20445;-90
2022/06/08 15:40:34;;;;;;;2.60;2.50;;;17.00;99.90;;;;;;4921979;29;20459;-92
2022/06/08 15:43:00;;;;;;;2.73;2.40;;;;;;;;;;4941047;29;20743;-91
2022/06/08 15:45:27;;;;;;;2.40;2.40;;;16.90;99.90;;;;;;4940464;29;20438;-92
2022/06/08 15:48:04;;;;;;;3.20;3.10;;;16.90;99.90;;;;;;4941077;29;20461;-90
2022/06/08 15:50:54;;;;;;;3.93;3.57;;;16.90;99.90;;;;;;4937156;29;20445;-91
2022/06/08 15:53:42;;;;;;;4.13;3.87;;;17.00;99.90;;;;;;4940330;29;20478;-90
2022/06/08 15:56:44;;;;;;;2.73;2.57;;;16.30;99.90;;;;;;4945984;29;20445;-88
2022/06/08 15:59:24;;;;;;;3.90;3.80;;;17.10;99.90;;;;;;4947625;29;20432;-92
2022/06/08 16:01:50;;;;;;;3.73;3.33;;;;;;;;;;4938506;29;20441;-91
2022/06/08 16:04:17;;;;;;;3.67;3.57;;;;;;;;;;4940033;29;20432;-94
2022/06/08 16:06:46;;;;;;;3.60;3.50;;;;;;;;;;4935230;29;20455;-86
2022/06/08 16:09:13;;;;;;;2.90;2.80;;;;;;;;;;4911769;29;20426;-90
2022/06/08 16:11:39;;;;;;;4.33;3.93;;;;;;;;;;4948948;29;20441;-89
2022/06/08 16:14:06;;;;;;;3.77;3.67;;;;;;;;;;4968202;29;20454;-87
2022/06/08 16:16:40;;;;;;;3.47;3.17;;;17.40;99.90;;;;;;4950360;29;20442;-90
2022/06/08 16:19:06;;;;;;;4.07;3.77;;;;;;;;;;4970900;29;20432;-91
2022/06/08 16:21:36;;;;;;;3.23;3.00;;;;;;;;;;4953987;29;20486;-91
2022/06/08 16:24:14;;;;;;;;;;;;;;;;;;;;;
2022/06/08 16:26:40;;;;;;;4.20;3.90;;;;;;;;;;4963317;29;20470;-88
2022/06/08 16:29:06;;;;;;;2.93;2.93;;;;;;;;;;4918240;29;20463;-90
2022/06/08 16:31:32;;;;;;;3.20;2.80;;;;;;;;;;4940002;29;20431;-90
2022/06/08 16:34:01;;;;;;;2.80;2.70;;;;;;;;;;4928740;29;20735;-91
2022/06/08 16:36:27;;;;;;;2.50;2.40;;;;;;;;;;4952909;29;20434;-90